Archival Weather

Pemba

Pemba, Mozambique (FQPB)

Report from: Saturday, April 1, 2023 2:00 AM CAT
Current time: Sunday, May 19, 2024 9:07 AM CAT

Current weather – Weather history – Daily summaries
Weather forecast

Temperature25.0°C (77.0°F)
Dew point23.0°C (73.4°F)
Winds 7 kts (3.6 m/s, 8.1 mph) Southwest (230°)
Visibility6.2 mi. (10 km)
Clouds Scattered clouds 2,000 ft. (610 m)
Few clouds with cumulonimbus 2,500 ft. (762 m)
Ceiling: Broken clouds 10,000 ft. (3,048 m)
Altimeter29.85 in.Hg (1011 mB)
Relative humidity89 %
Density altitude1,611 ft. (491 m)
Remarks Cumulonimbus clouds observed
Flight conditions Visual Meteorological Conditions
Raw dataFQPB 010000Z 23007KT 9999 SCT020 FEW025CB BKN100 25/23 Q1011 RMK CB TO E/SE/S
An error has occurred. This application may no longer respond until reloaded. Reload 🗙